sensor_id;sensor_type;location;lat;lon;timestamp;P1;durP1;ratioP1;P2;durP2;ratioP2
23044;SDS011;11690;51.716;23.066;2022-09-09T00:04:05;5.65;;;3.38;;
23044;SDS011;11690;51.716;23.066;2022-09-09T00:06:46;10.20;;;4.10;;
23044;SDS011;11690;51.716;23.066;2022-09-09T00:09:21;15.52;;;4.80;;
23044;SDS011;11690;51.716;23.066;2022-09-09T00:11:53;6.57;;;4.30;;
23044;SDS011;11690;51.716;23.066;2022-09-09T00:17:26;9.48;;;4.03;;
23044;SDS011;11690;51.716;23.066;2022-09-09T00:20:45;11.90;;;4.25;;
23044;SDS011;11690;51.716;23.066;2022-09-09T00:23:12;8.80;;;4.22;;
23044;SDS011;11690;51.716;23.066;2022-09-09T00:28:39;6.60;;;3.88;;
23044;SDS011;11690;51.716;23.066;2022-09-09T00:31:13;9.88;;;4.45;;
23044;SDS011;11690;51.716;23.066;2022-09-09T00:33:44;8.55;;;4.43;;
23044;SDS011;11690;51.716;23.066;2022-09-09T00:36:14;7.93;;;3.70;;
23044;SDS011;11690;51.716;23.066;2022-09-09T00:38:44;12.00;;;5.13;;
23044;SDS011;11690;51.716;23.066;2022-09-09T00:47:04;8.10;;;3.90;;
23044;SDS011;11690;51.716;23.066;2022-09-09T00:53:19;7.63;;;4.00;;
23044;SDS011;11690;51.716;23.066;2022-09-09T00:58:54;10.68;;;4.50;;
23044;SDS011;11690;51.716;23.066;2022-09-09T01:01:54;10.32;;;4.60;;
23044;SDS011;11690;51.716;23.066;2022-09-09T01:04:26;10.45;;;4.88;;
23044;SDS011;11690;51.716;23.066;2022-09-09T01:07:01;9.30;;;4.95;;
23044;SDS011;11690;51.716;23.066;2022-09-09T01:09:42;13.25;;;5.70;;
23044;SDS011;11690;51.716;23.066;2022-09-09T01:12:16;10.38;;;6.07;;
23044;SDS011;11690;51.716;23.066;2022-09-09T01:14:56;10.82;;;5.90;;
23044;SDS011;11690;51.716;23.066;2022-09-09T01:17:32;13.73;;;6.53;;
23044;SDS011;11690;51.716;23.066;2022-09-09T01:20:30;14.10;;;7.13;;
23044;SDS011;11690;51.716;23.066;2022-09-09T01:23:10;11.20;;;5.95;;
23044;SDS011;11690;51.716;23.066;2022-09-09T01:29:01;13.85;;;6.65;;
23044;SDS011;11690;51.716;23.066;2022-09-09T01:31:38;11.10;;;6.20;;
23044;SDS011;11690;51.716;23.066;2022-09-09T01:34:09;12.05;;;6.68;;
23044;SDS011;11690;51.716;23.066;2022-09-09T01:36:42;11.18;;;6.47;;
23044;SDS011;11690;51.716;23.066;2022-09-09T01:39:12;11.15;;;6.43;;
23044;SDS011;11690;51.716;23.066;2022-09-09T01:41:41;12.13;;;6.60;;
23044;SDS011;11690;51.716;23.066;2022-09-09T01:44:10;11.85;;;6.75;;
23044;SDS011;11690;51.716;23.066;2022-09-09T01:46:40;14.65;;;7.30;;
23044;SDS011;11690;51.716;23.066;2022-09-09T01:49:14;13.90;;;7.82;;
23044;SDS011;11690;51.716;23.066;2022-09-09T01:51:41;13.43;;;7.63;;
23044;SDS011;11690;51.716;23.066;2022-09-09T01:54:12;17.48;;;7.85;;
23044;SDS011;11690;51.716;23.066;2022-09-09T01:56:41;17.80;;;8.70;;
23044;SDS011;11690;51.716;23.066;2022-09-09T02:02:18;18.45;;;9.65;;
23044;SDS011;11690;51.716;23.066;2022-09-09T02:10:24;23.30;;;11.25;;
23044;SDS011;11690;51.716;23.066;2022-09-09T02:13:28;22.23;;;11.85;;
23044;SDS011;11690;51.716;23.066;2022-09-09T02:15:57;22.58;;;11.88;;
23044;SDS011;11690;51.716;23.066;2022-09-09T02:18:34;23.92;;;11.93;;
23044;SDS011;11690;51.716;23.066;2022-09-09T02:21:32;24.05;;;12.10;;
23044;SDS011;11690;51.716;23.066;2022-09-09T02:24:02;22.95;;;13.15;;
23044;SDS011;11690;51.716;23.066;2022-09-09T02:26:40;24.25;;;12.13;;
23044;SDS011;11690;51.716;23.066;2022-09-09T02:29:13;25.52;;;13.98;;
23044;SDS011;11690;51.716;23.066;2022-09-09T02:31:42;22.90;;;12.90;;
23044;SDS011;11690;51.716;23.066;2022-09-09T02:34:16;25.83;;;13.50;;
23044;SDS011;11690;51.716;23.066;2022-09-09T02:36:45;23.58;;;12.50;;
23044;SDS011;11690;51.716;23.066;2022-09-09T02:39:13;23.88;;;12.65;;
23044;SDS011;11690;51.716;23.066;2022-09-09T02:41:41;23.65;;;13.30;;
23044;SDS011;11690;51.716;23.066;2022-09-09T02:44:12;26.70;;;13.18;;
23044;SDS011;11690;51.716;23.066;2022-09-09T02:46:44;27.35;;;13.05;;
23044;SDS011;11690;51.716;23.066;2022-09-09T02:49:21;26.38;;;12.68;;
23044;SDS011;11690;51.716;23.066;2022-09-09T02:52:04;24.63;;;13.50;;
23044;SDS011;11690;51.716;23.066;2022-09-09T02:54:35;26.60;;;13.60;;
23044;SDS011;11690;51.716;23.066;2022-09-09T02:57:10;25.25;;;13.55;;
23044;SDS011;11690;51.716;23.066;2022-09-09T02:59:48;23.55;;;13.45;;
23044;SDS011;11690;51.716;23.066;2022-09-09T03:02:16;24.75;;;14.48;;
23044;SDS011;11690;51.716;23.066;2022-09-09T03:04:50;23.83;;;13.05;;
23044;SDS011;11690;51.716;23.066;2022-09-09T03:07:19;25.20;;;14.77;;
23044;SDS011;11690;51.716;23.066;2022-09-09T03:09:48;28.58;;;14.13;;
23044;SDS011;11690;51.716;23.066;2022-09-09T03:12:16;25.90;;;13.82;;
23044;SDS011;11690;51.716;23.066;2022-09-09T03:14:43;28.52;;;14.35;;
23044;SDS011;11690;51.716;23.066;2022-09-09T03:17:12;25.50;;;14.32;;
23044;SDS011;11690;51.716;23.066;2022-09-09T03:19:46;23.05;;;13.85;;
23044;SDS011;11690;51.716;23.066;2022-09-09T03:22:13;23.40;;;14.02;;
23044;SDS011;11690;51.716;23.066;2022-09-09T03:24:42;25.08;;;14.02;;
23044;SDS011;11690;51.716;23.066;2022-09-09T03:27:10;29.67;;;14.70;;
23044;SDS011;11690;51.716;23.066;2022-09-09T03:29:38;24.83;;;13.93;;
23044;SDS011;11690;51.716;23.066;2022-09-09T03:32:07;24.27;;;14.32;;
23044;SDS011;11690;51.716;23.066;2022-09-09T03:34:38;25.48;;;14.63;;
23044;SDS011;11690;51.716;23.066;2022-09-09T03:37:10;24.83;;;14.05;;
23044;SDS011;11690;51.716;23.066;2022-09-09T03:39:38;26.08;;;14.38;;
23044;SDS011;11690;51.716;23.066;2022-09-09T03:42:06;31.25;;;15.23;;
23044;SDS011;11690;51.716;23.066;2022-09-09T03:44:33;26.48;;;14.07;;
23044;SDS011;11690;51.716;23.066;2022-09-09T03:47:00;24.90;;;14.75;;
23044;SDS011;11690;51.716;23.066;2022-09-09T03:49:27;23.15;;;13.00;;
23044;SDS011;11690;51.716;23.066;2022-09-09T03:51:57;26.02;;;14.00;;
23044;SDS011;11690;51.716;23.066;2022-09-09T03:54:25;23.15;;;14.15;;
23044;SDS011;11690;51.716;23.066;2022-09-09T03:56:52;23.25;;;13.63;;
23044;SDS011;11690;51.716;23.066;2022-09-09T03:59:21;24.40;;;13.93;;
23044;SDS011;11690;51.716;23.066;2022-09-09T04:01:49;21.98;;;13.43;;
23044;SDS011;11690;51.716;23.066;2022-09-09T04:04:17;22.30;;;14.20;;
23044;SDS011;11690;51.716;23.066;2022-09-09T04:06:44;22.15;;;13.68;;
23044;SDS011;11690;51.716;23.066;2022-09-09T04:09:11;24.98;;;13.65;;
23044;SDS011;11690;51.716;23.066;2022-09-09T04:11:38;25.35;;;13.55;;
23044;SDS011;11690;51.716;23.066;2022-09-09T04:14:05;23.77;;;13.75;;
23044;SDS011;11690;51.716;23.066;2022-09-09T04:16:33;24.45;;;13.73;;
23044;SDS011;11690;51.716;23.066;2022-09-09T04:19:03;28.30;;;14.52;;
23044;SDS011;11690;51.716;23.066;2022-09-09T04:21:30;19.75;;;12.45;;
23044;SDS011;11690;51.716;23.066;2022-09-09T04:24:00;26.25;;;12.88;;
23044;SDS011;11690;51.716;23.066;2022-09-09T04:26:27;24.23;;;14.10;;
23044;SDS011;11690;51.716;23.066;2022-09-09T04:28:54;25.75;;;13.93;;
23044;SDS011;11690;51.716;23.066;2022-09-09T04:31:22;25.05;;;14.38;;
23044;SDS011;11690;51.716;23.066;2022-09-09T04:33:53;21.92;;;12.93;;
23044;SDS011;11690;51.716;23.066;2022-09-09T04:36:21;27.52;;;13.88;;
23044;SDS011;11690;51.716;23.066;2022-09-09T04:38:50;22.75;;;13.85;;
23044;SDS011;11690;51.716;23.066;2022-09-09T04:41:17;22.55;;;14.23;;
23044;SDS011;11690;51.716;23.066;2022-09-09T04:43:48;20.17;;;13.77;;
23044;SDS011;11690;51.716;23.066;2022-09-09T04:46:15;27.80;;;14.23;;
23044;SDS011;11690;51.716;23.066;2022-09-09T04:48:44;21.48;;;13.60;;
23044;SDS011;11690;51.716;23.066;2022-09-09T04:51:13;22.52;;;13.25;;
23044;SDS011;11690;51.716;23.066;2022-09-09T04:53:42;21.73;;;13.02;;
23044;SDS011;11690;51.716;23.066;2022-09-09T04:56:12;25.63;;;14.13;;
23044;SDS011;11690;51.716;23.066;2022-09-09T04:58:45;21.58;;;12.93;;
23044;SDS011;11690;51.716;23.066;2022-09-09T05:03:50;22.95;;;13.32;;
23044;SDS011;11690;51.716;23.066;2022-09-09T05:06:21;21.00;;;12.07;;
23044;SDS011;11690;51.716;23.066;2022-09-09T05:08:53;19.55;;;13.02;;
23044;SDS011;11690;51.716;23.066;2022-09-09T05:11:25;25.33;;;13.27;;
23044;SDS011;11690;51.716;23.066;2022-09-09T05:13:58;21.85;;;13.07;;
23044;SDS011;11690;51.716;23.066;2022-09-09T05:16:28;21.73;;;12.65;;
23044;SDS011;11690;51.716;23.066;2022-09-09T05:18:55;23.88;;;13.65;;
23044;SDS011;11690;51.716;23.066;2022-09-09T05:21:23;20.75;;;13.52;;
23044;SDS011;11690;51.716;23.066;2022-09-09T05:23:53;21.88;;;13.40;;
23044;SDS011;11690;51.716;23.066;2022-09-09T05:26:20;21.88;;;13.55;;
23044;SDS011;11690;51.716;23.066;2022-09-09T05:28:50;23.40;;;13.85;;
23044;SDS011;11690;51.716;23.066;2022-09-09T05:31:18;23.40;;;13.25;;
23044;SDS011;11690;51.716;23.066;2022-09-09T05:33:48;26.02;;;14.00;;
23044;SDS011;11690;51.716;23.066;2022-09-09T05:36:17;24.65;;;13.80;;
23044;SDS011;11690;51.716;23.066;2022-09-09T05:38:48;24.05;;;13.35;;
23044;SDS011;11690;51.716;23.066;2022-09-09T05:41:16;27.05;;;13.55;;
23044;SDS011;11690;51.716;23.066;2022-09-09T05:43:45;24.98;;;13.65;;
23044;SDS011;11690;51.716;23.066;2022-09-09T05:48:43;26.42;;;14.38;;
23044;SDS011;11690;51.716;23.066;2022-09-09T05:51:14;23.33;;;13.75;;
23044;SDS011;11690;51.716;23.066;2022-09-09T05:53:42;22.90;;;14.23;;
23044;SDS011;11690;51.716;23.066;2022-09-09T05:56:12;23.10;;;14.35;;
23044;SDS011;11690;51.716;23.066;2022-09-09T05:58:46;22.83;;;13.85;;
23044;SDS011;11690;51.716;23.066;2022-09-09T06:01:25;22.45;;;13.30;;
23044;SDS011;11690;51.716;23.066;2022-09-09T06:03:53;21.70;;;13.40;;
23044;SDS011;11690;51.716;23.066;2022-09-09T06:06:23;25.35;;;13.55;;
23044;SDS011;11690;51.716;23.066;2022-09-09T06:08:57;24.40;;;13.45;;
23044;SDS011;11690;51.716;23.066;2022-09-09T06:11:30;21.50;;;13.55;;
23044;SDS011;11690;51.716;23.066;2022-09-09T06:13:59;22.27;;;13.50;;
23044;SDS011;11690;51.716;23.066;2022-09-09T06:16:28;27.40;;;14.48;;
23044;SDS011;11690;51.716;23.066;2022-09-09T06:18:56;23.90;;;14.05;;
23044;SDS011;11690;51.716;23.066;2022-09-09T06:21:29;22.50;;;13.70;;
23044;SDS011;11690;51.716;23.066;2022-09-09T06:23:59;23.88;;;13.85;;
23044;SDS011;11690;51.716;23.066;2022-09-09T06:26:29;24.98;;;13.07;;
23044;SDS011;11690;51.716;23.066;2022-09-09T06:29:03;24.45;;;13.68;;
23044;SDS011;11690;51.716;23.066;2022-09-09T06:31:32;22.80;;;14.30;;
23044;SDS011;11690;51.716;23.066;2022-09-09T06:34:07;20.38;;;13.45;;
23044;SDS011;11690;51.716;23.066;2022-09-09T06:36:39;21.13;;;13.10;;
23044;SDS011;11690;51.716;23.066;2022-09-09T06:39:07;22.88;;;13.65;;
23044;SDS011;11690;51.716;23.066;2022-09-09T06:41:40;22.20;;;12.70;;
23044;SDS011;11690;51.716;23.066;2022-09-09T06:44:25;21.17;;;12.52;;
23044;SDS011;11690;51.716;23.066;2022-09-09T06:46:58;22.55;;;13.45;;
23044;SDS011;11690;51.716;23.066;2022-09-09T06:49:25;20.67;;;12.43;;
23044;SDS011;11690;51.716;23.066;2022-09-09T06:51:52;19.48;;;12.57;;
23044;SDS011;11690;51.716;23.066;2022-09-09T06:54:21;20.98;;;12.52;;
23044;SDS011;11690;51.716;23.066;2022-09-09T06:56:49;22.20;;;13.68;;
23044;SDS011;11690;51.716;23.066;2022-09-09T06:59:21;20.27;;;12.15;;
23044;SDS011;11690;51.716;23.066;2022-09-09T07:01:52;17.17;;;11.55;;
23044;SDS011;11690;51.716;23.066;2022-09-09T07:04:23;19.17;;;11.45;;
23044;SDS011;11690;51.716;23.066;2022-09-09T07:06:49;17.17;;;11.10;;
23044;SDS011;11690;51.716;23.066;2022-09-09T07:09:24;18.88;;;12.10;;
23044;SDS011;11690;51.716;23.066;2022-09-09T07:11:53;17.70;;;11.00;;
23044;SDS011;11690;51.716;23.066;2022-09-09T07:14:22;16.48;;;11.02;;
23044;SDS011;11690;51.716;23.066;2022-09-09T07:16:59;16.25;;;11.07;;
23044;SDS011;11690;51.716;23.066;2022-09-09T07:19:32;17.38;;;10.88;;
23044;SDS011;11690;51.716;23.066;2022-09-09T07:22:03;15.95;;;10.77;;
23044;SDS011;11690;51.716;23.066;2022-09-09T07:24:31;16.52;;;10.23;;
23044;SDS011;11690;51.716;23.066;2022-09-09T07:26:58;14.68;;;9.45;;
23044;SDS011;11690;51.716;23.066;2022-09-09T07:29:26;15.90;;;10.05;;
23044;SDS011;11690;51.716;23.066;2022-09-09T07:31:53;15.35;;;9.40;;
23044;SDS011;11690;51.716;23.066;2022-09-09T07:34:25;12.43;;;8.55;;
23044;SDS011;11690;51.716;23.066;2022-09-09T07:36:52;12.50;;;8.93;;
23044;SDS011;11690;51.716;23.066;2022-09-09T07:39:19;10.93;;;7.18;;
23044;SDS011;11690;51.716;23.066;2022-09-09T07:41:50;12.15;;;7.65;;
23044;SDS011;11690;51.716;23.066;2022-09-09T07:44:22;11.68;;;7.53;;
23044;SDS011;11690;51.716;23.066;2022-09-09T07:47:02;11.40;;;7.35;;
23044;SDS011;11690;51.716;23.066;2022-09-09T07:49:35;11.77;;;7.65;;
23044;SDS011;11690;51.716;23.066;2022-09-09T07:52:03;17.83;;;7.95;;
23044;SDS011;11690;51.716;23.066;2022-09-09T07:54:31;10.70;;;7.60;;
23044;SDS011;11690;51.716;23.066;2022-09-09T07:57:00;10.95;;;7.00;;
23044;SDS011;11690;51.716;23.066;2022-09-09T07:59:32;9.40;;;7.10;;
23044;SDS011;11690;51.716;23.066;2022-09-09T08:02:00;12.38;;;7.35;;
23044;SDS011;11690;51.716;23.066;2022-09-09T08:04:30;14.00;;;7.30;;
23044;SDS011;11690;51.716;23.066;2022-09-09T08:06:58;13.98;;;7.70;;
23044;SDS011;11690;51.716;23.066;2022-09-09T08:09:27;10.00;;;7.05;;
23044;SDS011;11690;51.716;23.066;2022-09-09T08:12:06;11.05;;;7.72;;
23044;SDS011;11690;51.716;23.066;2022-09-09T08:14:33;9.98;;;7.45;;
23044;SDS011;11690;51.716;23.066;2022-09-09T08:17:00;11.88;;;7.53;;
23044;SDS011;11690;51.716;23.066;2022-09-09T08:19:29;15.48;;;8.07;;
23044;SDS011;11690;51.716;23.066;2022-09-09T08:21:58;13.10;;;7.90;;
23044;SDS011;11690;51.716;23.066;2022-09-09T08:24:26;13.65;;;8.20;;
23044;SDS011;11690;51.716;23.066;2022-09-09T08:26:53;11.38;;;7.88;;
23044;SDS011;11690;51.716;23.066;2022-09-09T08:29:22;11.80;;;8.23;;
23044;SDS011;11690;51.716;23.066;2022-09-09T08:31:52;12.13;;;8.35;;
23044;SDS011;11690;51.716;23.066;2022-09-09T08:34:21;13.10;;;7.88;;
23044;SDS011;11690;51.716;23.066;2022-09-09T08:36:50;13.20;;;8.65;;
23044;SDS011;11690;51.716;23.066;2022-09-09T08:39:21;17.00;;;8.32;;
23044;SDS011;11690;51.716;23.066;2022-09-09T08:53:14;11.50;;;8.05;;
23044;SDS011;11690;51.716;23.066;2022-09-09T08:55:45;13.82;;;8.00;;
23044;SDS011;11690;51.716;23.066;2022-09-09T08:58:26;12.52;;;7.90;;
23044;SDS011;11690;51.716;23.066;2022-09-09T09:01:44;13.05;;;8.13;;
23044;SDS011;11690;51.716;23.066;2022-09-09T09:04:41;12.15;;;8.48;;
23044;SDS011;11690;51.716;23.066;2022-09-09T09:12:19;14.35;;;8.18;;
23044;SDS011;11690;51.716;23.066;2022-09-09T09:14:49;14.13;;;8.27;;
23044;SDS011;11690;51.716;23.066;2022-09-09T09:17:21;12.68;;;7.57;;
23044;SDS011;11690;51.716;23.066;2022-09-09T09:19:51;10.70;;;7.50;;
23044;SDS011;11690;51.716;23.066;2022-09-09T09:22:22;12.30;;;8.05;;
23044;SDS011;11690;51.716;23.066;2022-09-09T09:25:03;11.40;;;7.63;;
23044;SDS011;11690;51.716;23.066;2022-09-09T09:27:40;12.50;;;8.30;;
23044;SDS011;11690;51.716;23.066;2022-09-09T09:30:17;10.88;;;8.00;;
23044;SDS011;11690;51.716;23.066;2022-09-09T09:33:00;16.83;;;7.80;;
23044;SDS011;11690;51.716;23.066;2022-09-09T09:35:30;9.57;;;7.43;;
23044;SDS011;11690;51.716;23.066;2022-09-09T09:37:57;12.30;;;8.02;;
23044;SDS011;11690;51.716;23.066;2022-09-09T09:40:49;12.52;;;7.55;;
23044;SDS011;11690;51.716;23.066;2022-09-09T09:43:19;9.85;;;6.80;;
23044;SDS011;11690;51.716;23.066;2022-09-09T09:45:48;10.18;;;7.43;;
23044;SDS011;11690;51.716;23.066;2022-09-09T09:48:36;9.63;;;6.57;;
23044;SDS011;11690;51.716;23.066;2022-09-09T09:51:06;11.73;;;7.18;;
23044;SDS011;11690;51.716;23.066;2022-09-09T09:53:38;8.93;;;6.53;;
23044;SDS011;11690;51.716;23.066;2022-09-09T09:56:11;8.77;;;6.00;;
23044;SDS011;11690;51.716;23.066;2022-09-09T10:03:58;8.75;;;5.55;;
23044;SDS011;11690;51.716;23.066;2022-09-09T10:06:33;6.75;;;5.45;;
23044;SDS011;11690;51.716;23.066;2022-09-09T10:09:02;9.07;;;5.82;;
23044;SDS011;11690;51.716;23.066;2022-09-09T10:14:32;6.10;;;4.95;;
23044;SDS011;11690;51.716;23.066;2022-09-09T10:22:44;7.70;;;4.75;;
23044;SDS011;11690;51.716;23.066;2022-09-09T10:25:22;8.10;;;5.30;;
23044;SDS011;11690;51.716;23.066;2022-09-09T10:30:54;6.55;;;5.07;;
23044;SDS011;11690;51.716;23.066;2022-09-09T10:33:37;7.18;;;5.15;;
23044;SDS011;11690;51.716;23.066;2022-09-09T10:36:27;6.75;;;4.90;;
23044;SDS011;11690;51.716;23.066;2022-09-09T10:38:59;7.07;;;4.80;;
23044;SDS011;11690;51.716;23.066;2022-09-09T10:56:33;8.25;;;5.10;;
23044;SDS011;11690;51.716;23.066;2022-09-09T10:59:10;7.53;;;5.80;;
23044;SDS011;11690;51.716;23.066;2022-09-09T11:01:44;7.85;;;4.90;;
23044;SDS011;11690;51.716;23.066;2022-09-09T11:06:49;7.05;;;5.13;;
23044;SDS011;11690;51.716;23.066;2022-09-09T11:09:20;7.70;;;5.13;;
23044;SDS011;11690;51.716;23.066;2022-09-09T11:11:56;7.35;;;5.03;;
23044;SDS011;11690;51.716;23.066;2022-09-09T11:14:28;6.38;;;4.70;;
23044;SDS011;11690;51.716;23.066;2022-09-09T11:17:16;5.72;;;4.80;;
23044;SDS011;11690;51.716;23.066;2022-09-09T11:19:45;6.18;;;4.35;;
23044;SDS011;11690;51.716;23.066;2022-09-09T11:22:29;7.25;;;4.70;;
23044;SDS011;11690;51.716;23.066;2022-09-09T11:24:58;8.02;;;4.57;;
23044;SDS011;11690;51.716;23.066;2022-09-09T11:33:18;5.35;;;4.75;;
23044;SDS011;11690;51.716;23.066;2022-09-09T11:41:14;7.53;;;4.90;;
23044;SDS011;11690;51.716;23.066;2022-09-09T11:43:48;6.78;;;4.65;;
23044;SDS011;11690;51.716;23.066;2022-09-09T11:46:19;8.50;;;5.40;;
23044;SDS011;11690;51.716;23.066;2022-09-09T11:48:59;6.93;;;5.18;;
23044;SDS011;11690;51.716;23.066;2022-09-09T11:51:27;5.63;;;4.72;;
23044;SDS011;11690;51.716;23.066;2022-09-09T11:53:57;6.13;;;4.97;;
23044;SDS011;11690;51.716;23.066;2022-09-09T11:56:31;6.63;;;5.00;;
23044;SDS011;11690;51.716;23.066;2022-09-09T11:59:04;7.68;;;5.88;;
23044;SDS011;11690;51.716;23.066;2022-09-09T12:06:42;9.70;;;5.32;;
23044;SDS011;11690;51.716;23.066;2022-09-09T12:12:33;8.20;;;5.05;;
23044;SDS011;11690;51.716;23.066;2022-09-09T12:17:30;10.85;;;4.85;;
23044;SDS011;11690;51.716;23.066;2022-09-09T12:28:09;7.95;;;5.38;;
23044;SDS011;11690;51.716;23.066;2022-09-09T12:33:50;6.82;;;4.40;;
23044;SDS011;11690;51.716;23.066;2022-09-09T12:36:24;7.03;;;4.28;;
23044;SDS011;11690;51.716;23.066;2022-09-09T12:38:55;6.10;;;4.13;;
23044;SDS011;11690;51.716;23.066;2022-09-09T12:41:27;8.32;;;4.80;;
23044;SDS011;11690;51.716;23.066;2022-09-09T12:44:05;6.75;;;4.53;;
23044;SDS011;11690;51.716;23.066;2022-09-09T12:49:03;6.55;;;4.00;;
23044;SDS011;11690;51.716;23.066;2022-09-09T12:51:31;5.78;;;4.10;;
23044;SDS011;11690;51.716;23.066;2022-09-09T12:53:59;6.43;;;4.25;;
23044;SDS011;11690;51.716;23.066;2022-09-09T12:56:35;4.95;;;4.13;;
23044;SDS011;11690;51.716;23.066;2022-09-09T12:59:02;5.95;;;3.53;;
23044;SDS011;11690;51.716;23.066;2022-09-09T13:01:30;6.60;;;3.78;;
23044;SDS011;11690;51.716;23.066;2022-09-09T13:03:59;6.38;;;3.80;;
23044;SDS011;11690;51.716;23.066;2022-09-09T13:06:28;10.10;;;6.00;;
23044;SDS011;11690;51.716;23.066;2022-09-09T13:08:57;26.00;;;19.73;;
23044;SDS011;11690;51.716;23.066;2022-09-09T13:11:27;25.67;;;16.75;;
23044;SDS011;11690;51.716;23.066;2022-09-09T13:13:57;35.92;;;22.55;;
23044;SDS011;11690;51.716;23.066;2022-09-09T13:16:32;24.33;;;19.40;;
23044;SDS011;11690;51.716;23.066;2022-09-09T13:19:08;9.38;;;8.48;;
23044;SDS011;11690;51.716;23.066;2022-09-09T13:21:45;9.15;;;7.63;;
23044;SDS011;11690;51.716;23.066;2022-09-09T13:24:26;8.95;;;8.15;;
23044;SDS011;11690;51.716;23.066;2022-09-09T13:26:57;9.43;;;7.22;;
23044;SDS011;11690;51.716;23.066;2022-09-09T13:29:24;5.82;;;5.13;;
23044;SDS011;11690;51.716;23.066;2022-09-09T13:31:51;5.07;;;4.50;;
23044;SDS011;11690;51.716;23.066;2022-09-09T13:34:26;12.15;;;10.15;;
23044;SDS011;11690;51.716;23.066;2022-09-09T13:36:59;7.47;;;6.72;;
23044;SDS011;11690;51.716;23.066;2022-09-09T13:39:29;8.50;;;7.53;;
23044;SDS011;11690;51.716;23.066;2022-09-09T13:41:56;6.43;;;5.47;;
23044;SDS011;11690;51.716;23.066;2022-09-09T13:44:24;26.83;;;14.20;;
23044;SDS011;11690;51.716;23.066;2022-09-09T13:46:59;16.50;;;9.18;;
23044;SDS011;11690;51.716;23.066;2022-09-09T13:49:53;24.80;;;13.38;;
23044;SDS011;11690;51.716;23.066;2022-09-09T13:52:20;39.28;;;19.25;;
23044;SDS011;11690;51.716;23.066;2022-09-09T13:54:49;59.58;;;29.92;;
23044;SDS011;11690;51.716;23.066;2022-09-09T13:57:22;73.82;;;38.30;;
23044;SDS011;11690;51.716;23.066;2022-09-09T13:59:51;62.22;;;32.63;;
23044;SDS011;11690;51.716;23.066;2022-09-09T14:02:37;65.68;;;28.95;;
23044;SDS011;11690;51.716;23.066;2022-09-09T14:05:05;74.32;;;31.15;;
23044;SDS011;11690;51.716;23.066;2022-09-09T14:07:32;82.05;;;30.63;;
23044;SDS011;11690;51.716;23.066;2022-09-09T14:10:00;29.55;;;14.40;;
23044;SDS011;11690;51.716;23.066;2022-09-09T14:12:27;67.45;;;28.23;;
23044;SDS011;11690;51.716;23.066;2022-09-09T14:14:54;44.80;;;20.92;;
23044;SDS011;11690;51.716;23.066;2022-09-09T14:17:21;65.82;;;29.58;;
23044;SDS011;11690;51.716;23.066;2022-09-09T14:19:48;40.22;;;19.92;;
23044;SDS011;11690;51.716;23.066;2022-09-09T14:22:15;42.92;;;20.55;;
23044;SDS011;11690;51.716;23.066;2022-09-09T14:24:42;32.80;;;16.90;;
23044;SDS011;11690;51.716;23.066;2022-09-09T14:27:09;58.40;;;27.05;;
23044;SDS011;11690;51.716;23.066;2022-09-09T14:29:36;64.18;;;27.08;;
23044;SDS011;11690;51.716;23.066;2022-09-09T14:32:04;79.75;;;31.35;;
23044;SDS011;11690;51.716;23.066;2022-09-09T14:34:37;92.80;;;35.95;;
23044;SDS011;11690;51.716;23.066;2022-09-09T14:37:05;116.72;;;52.35;;
23044;SDS011;11690;51.716;23.066;2022-09-09T14:39:32;108.03;;;46.55;;
23044;SDS011;11690;51.716;23.066;2022-09-09T14:41:59;87.57;;;35.58;;
23044;SDS011;11690;51.716;23.066;2022-09-09T14:44:27;54.80;;;24.75;;
23044;SDS011;11690;51.716;23.066;2022-09-09T14:46:54;58.88;;;28.30;;
23044;SDS011;11690;51.716;23.066;2022-09-09T14:49:21;34.35;;;18.13;;
23044;SDS011;11690;51.716;23.066;2022-09-09T14:51:48;45.42;;;23.52;;
23044;SDS011;11690;51.716;23.066;2022-09-09T14:54:15;43.83;;;24.17;;
23044;SDS011;11690;51.716;23.066;2022-09-09T14:56:45;19.55;;;10.43;;
23044;SDS011;11690;51.716;23.066;2022-09-09T14:59:12;44.75;;;23.40;;
23044;SDS011;11690;51.716;23.066;2022-09-09T15:01:39;17.13;;;12.00;;
23044;SDS011;11690;51.716;23.066;2022-09-09T15:04:06;18.70;;;12.15;;
23044;SDS011;11690;51.716;23.066;2022-09-09T15:06:35;25.33;;;16.48;;
23044;SDS011;11690;51.716;23.066;2022-09-09T15:09:04;15.70;;;10.85;;
23044;SDS011;11690;51.716;23.066;2022-09-09T15:11:33;16.33;;;11.75;;
23044;SDS011;11690;51.716;23.066;2022-09-09T15:14:05;13.70;;;8.25;;
23044;SDS011;11690;51.716;23.066;2022-09-09T15:16:33;33.35;;;19.98;;
23044;SDS011;11690;51.716;23.066;2022-09-09T15:19:00;16.80;;;11.23;;
23044;SDS011;11690;51.716;23.066;2022-09-09T15:21:29;16.83;;;10.23;;
23044;SDS011;11690;51.716;23.066;2022-09-09T15:23:57;47.67;;;26.38;;
23044;SDS011;11690;51.716;23.066;2022-09-09T15:26:25;41.75;;;23.27;;
23044;SDS011;11690;51.716;23.066;2022-09-09T15:28:53;37.63;;;20.63;;
23044;SDS011;11690;51.716;23.066;2022-09-09T15:31:21;43.50;;;21.05;;
23044;SDS011;11690;51.716;23.066;2022-09-09T15:33:50;43.10;;;21.83;;
23044;SDS011;11690;51.716;23.066;2022-09-09T15:38:59;19.75;;;10.88;;
23044;SDS011;11690;51.716;23.066;2022-09-09T15:41:26;15.45;;;9.05;;
23044;SDS011;11690;51.716;23.066;2022-09-09T15:43:55;17.02;;;10.07;;
23044;SDS011;11690;51.716;23.066;2022-09-09T15:46:34;28.77;;;15.18;;
23044;SDS011;11690;51.716;23.066;2022-09-09T15:49:07;17.20;;;10.55;;
23044;SDS011;11690;51.716;23.066;2022-09-09T15:51:39;24.58;;;15.60;;
23044;SDS011;11690;51.716;23.066;2022-09-09T15:54:11;34.80;;;19.25;;
23044;SDS011;11690;51.716;23.066;2022-09-09T15:56:39;16.83;;;11.77;;
23044;SDS011;11690;51.716;23.066;2022-09-09T15:59:07;10.88;;;8.63;;
23044;SDS011;11690;51.716;23.066;2022-09-09T16:01:34;9.20;;;7.22;;
23044;SDS011;11690;51.716;23.066;2022-09-09T16:04:02;15.50;;;11.73;;
23044;SDS011;11690;51.716;23.066;2022-09-09T16:06:29;10.40;;;6.97;;
23044;SDS011;11690;51.716;23.066;2022-09-09T16:08:57;11.70;;;8.27;;
23044;SDS011;11690;51.716;23.066;2022-09-09T16:11:27;7.68;;;5.80;;
23044;SDS011;11690;51.716;23.066;2022-09-09T16:13:55;10.52;;;7.00;;
23044;SDS011;11690;51.716;23.066;2022-09-09T16:16:24;11.60;;;8.35;;
23044;SDS011;11690;51.716;23.066;2022-09-09T16:18:53;11.95;;;8.32;;
23044;SDS011;11690;51.716;23.066;2022-09-09T16:21:23;12.48;;;7.20;;
23044;SDS011;11690;51.716;23.066;2022-09-09T16:23:56;9.68;;;7.50;;
23044;SDS011;11690;51.716;23.066;2022-09-09T16:26:26;9.35;;;7.10;;
23044;SDS011;11690;51.716;23.066;2022-09-09T16:28:54;18.30;;;10.40;;
23044;SDS011;11690;51.716;23.066;2022-09-09T16:31:22;11.65;;;7.93;;
23044;SDS011;11690;51.716;23.066;2022-09-09T16:33:50;10.50;;;7.35;;
23044;SDS011;11690;51.716;23.066;2022-09-09T16:36:21;10.68;;;6.05;;
23044;SDS011;11690;51.716;23.066;2022-09-09T16:38:56;8.27;;;5.95;;
23044;SDS011;11690;51.716;23.066;2022-09-09T16:41:26;9.55;;;5.50;;
23044;SDS011;11690;51.716;23.066;2022-09-09T16:43:57;8.68;;;6.10;;
23044;SDS011;11690;51.716;23.066;2022-09-09T16:46:26;8.02;;;5.75;;
23044;SDS011;11690;51.716;23.066;2022-09-09T16:48:58;9.48;;;6.88;;
23044;SDS011;11690;51.716;23.066;2022-09-09T16:51:27;7.93;;;6.07;;